Time,TemperatureF,DewpointF,PressureIn,WindDirection,WindDirectionDegrees,WindSpeedMPH,WindSpeedGustMPH,Humidity,HourlyPrecipIn,Conditions,Clouds,dailyrainin,SoftwareType,DateUTC
2013-01-04 00:03:00,28.0,23.0,29.90,WSW,238,12.0,25.0,81,0.00,,,0.00,,2013-01-04 05:03:00,
2013-01-04 00:12:00,28.0,23.0,29.90,WSW,238,12.0,25.0,81,0.00,,,0.00,,2013-01-04 05:12:00,
2013-01-04 00:22:00,28.0,23.0,29.90,WSW,245,17.0,26.0,82,0.00,,,0.00,,2013-01-04 05:22:00,
2013-01-04 00:33:00,28.0,23.0,29.90,West,268,17.0,27.0,82,0.00,,,0.00,,2013-01-04 05:33:00,
2013-01-04 00:42:00,28.0,23.0,29.90,West,268,17.0,27.0,82,0.00,,,0.00,,2013-01-04 05:42:00,
2013-01-04 00:53:00,28.0,24.0,29.89,SW,236,11.0,23.0,83,0.00,,,0.00,,2013-01-04 05:53:00,
2013-01-04 01:02:00,28.0,24.0,29.88,SW,223,15.0,23.0,83,0.00,,,0.00,,2013-01-04 06:02:00,
2013-01-04 01:12:00,28.0,24.0,29.88,SW,223,15.0,23.0,83,0.00,,,0.00,,2013-01-04 06:12:00,
2013-01-04 01:22:00,28.0,24.0,29.86,SW,236,15.0,27.0,83,0.00,,,0.00,,2013-01-04 06:22:00,
2013-01-04 01:33:00,28.0,24.0,29.85,SW,234,15.0,29.0,83,0.00,,,0.00,,2013-01-04 06:33:00,
2013-01-04 01:42:00,28.0,24.0,29.85,SW,234,15.0,29.0,83,0.00,,,0.00,,2013-01-04 06:42:00,
2013-01-04 01:52:00,28.0,23.0,29.85,South,173,15.0,26.0,82,0.00,,,0.00,,2013-01-04 06:52:00,
2013-01-04 02:02:00,28.0,23.0,29.83,SW,223,16.0,28.0,82,0.00,,,0.00,,2013-01-04 07:02:00,
2013-01-04 02:12:00,28.0,23.0,29.83,SW,223,16.0,28.0,82,0.00,,,0.00,,2013-01-04 07:12:00,
2013-01-04 02:22:00,27.0,23.0,29.82,SSW,192,19.0,29.0,83,0.00,,,0.00,,2013-01-04 07:22:00,
2013-01-04 02:32:00,27.0,23.0,29.80,SW,218,22.0,33.0,83,0.00,,,0.00,,2013-01-04 07:32:00,
2013-01-04 02:42:00,27.0,23.0,29.80,SW,218,22.0,33.0,83,0.00,,,0.00,,2013-01-04 07:42:00,
2013-01-04 02:52:00,27.0,23.0,29.79,SW,227,20.0,36.0,83,0.00,,,0.00,,2013-01-04 07:52:00,
2013-01-04 03:02:00,27.0,23.0,29.79,SSW,207,17.0,32.0,83,0.00,,,0.00,,2013-01-04 08:02:00,
2013-01-04 03:12:00,27.0,23.0,29.79,SSW,207,17.0,32.0,83,0.00,,,0.00,,2013-01-04 08:12:00,
2013-01-04 03:22:00,27.0,23.0,29.79,SW,234,14.0,29.0,83,0.00,,,0.00,,2013-01-04 08:22:00,
2013-01-04 03:32:00,27.0,22.0,29.80,WSW,257,13.0,25.0,82,0.00,,,0.00,,2013-01-04 08:32:00,
2013-01-04 03:42:00,27.0,22.0,29.80,WSW,257,13.0,25.0,82,0.00,,,0.00,,2013-01-04 08:42:00,
2013-01-04 03:53:00,28.0,23.0,29.82,SSW,202,12.0,24.0,82,0.00,,,0.00,,2013-01-04 08:53:00,
2013-01-04 04:02:00,28.0,23.0,29.81,WSW,246,18.0,25.0,81,0.00,,,0.00,,2013-01-04 09:02:00,